createdAt,value
2016-08-25T00:00:44.561Z,1020.96
2016-08-25T00:01:45.185Z,1020.98
2016-08-25T00:02:45.816Z,1020.95
2016-08-25T00:03:46.437Z,1020.93
2016-08-25T00:04:47.061Z,1020.88
2016-08-25T00:05:47.696Z,1020.91
2016-08-25T00:06:48.321Z,1020.9
2016-08-25T00:07:48.946Z,1020.9
2016-08-25T00:08:49.567Z,1020.88
2016-08-25T00:09:50.187Z,1020.89
2016-08-25T00:10:50.818Z,1020.86
2016-08-25T00:11:51.446Z,1020.9
2016-08-25T00:12:52.060Z,1020.9
2016-08-25T00:13:52.687Z,1020.9
2016-08-25T00:14:53.306Z,1020.94
2016-08-25T00:15:53.928Z,1020.9
2016-08-25T00:16:54.549Z,1020.93
2016-08-25T00:17:55.174Z,1020.92
2016-08-25T00:18:55.796Z,1020.9
2016-08-25T00:19:56.411Z,1020.91
2016-08-25T00:20:57.036Z,1020.91
2016-08-25T00:21:57.668Z,1020.89
2016-08-25T00:22:58.287Z,1020.93
2016-08-25T00:23:58.906Z,1020.95
2016-08-25T00:24:59.547Z,1020.95
2016-08-25T00:26:00.170Z,1020.93
2016-08-25T00:27:00.790Z,1020.97
2016-08-25T00:28:01.414Z,1020.98
2016-08-25T00:29:02.037Z,1020.97
2016-08-25T00:30:02.659Z,1020.95
2016-08-25T00:31:03.280Z,1020.96
2016-08-25T00:32:03.913Z,1020.95
2016-08-25T00:33:04.536Z,1020.97
2016-08-25T00:34:05.162Z,1020.95
2016-08-25T00:35:05.791Z,1020.97
2016-08-25T00:36:06.418Z,1020.94
2016-08-25T00:37:07.041Z,1020.91
2016-08-25T00:38:07.661Z,1020.92
2016-08-25T00:39:08.285Z,1020.92
2016-08-25T00:40:08.927Z,1020.86
2016-08-25T00:41:09.561Z,1020.92
2016-08-25T00:42:10.189Z,1020.89
2016-08-25T00:43:10.823Z,1020.86
2016-08-25T00:44:11.467Z,1020.85
2016-08-25T00:45:12.092Z,1020.89
2016-08-25T00:46:12.717Z,1020.87
2016-08-25T00:47:13.363Z,1020.85
2016-08-25T00:48:13.987Z,1020.88
2016-08-25T00:49:14.610Z,1020.9
2016-08-25T00:50:15.242Z,1020.87
2016-08-25T00:51:15.857Z,1020.87
2016-08-25T00:52:16.482Z,1020.89
2016-08-25T00:53:17.104Z,1020.89
2016-08-25T00:54:17.719Z,1020.89
2016-08-25T00:55:18.342Z,1020.84
2016-08-25T00:56:18.968Z,1020.86
2016-08-25T00:57:19.608Z,1020.85
2016-08-25T00:58:20.239Z,1020.84
2016-08-25T00:59:20.869Z,1020.85
2016-08-25T01:00:21.490Z,1020.87
2016-08-25T01:01:22.126Z,1020.84
2016-08-25T01:02:22.747Z,1020.83
2016-08-25T01:03:23.368Z,1020.83
2016-08-25T01:04:23.990Z,1020.83
2016-08-25T01:05:24.626Z,1020.87
2016-08-25T01:06:25.263Z,1020.91
2016-08-25T01:07:25.887Z,1020.9
2016-08-25T01:08:26.519Z,1020.89
2016-08-25T01:09:27.144Z,1020.89
2016-08-25T01:10:27.768Z,1020.88
2016-08-25T01:11:28.395Z,1020.9
2016-08-25T01:12:29.024Z,1020.89
2016-08-25T01:13:29.652Z,1020.88
2016-08-25T01:14:30.272Z,1020.91
2016-08-25T01:15:30.891Z,1020.9
2016-08-25T01:16:31.519Z,1020.91
2016-08-25T01:17:32.151Z,1020.88
2016-08-25T01:18:32.781Z,1020.91
2016-08-25T01:19:33.424Z,1020.87
2016-08-25T01:20:34.048Z,1020.85
2016-08-25T01:21:34.672Z,1020.88
2016-08-25T01:22:35.295Z,1020.87
2016-08-25T01:23:35.930Z,1020.89
2016-08-25T01:24:36.539Z,1020.89
2016-08-25T01:25:37.165Z,1020.87
2016-08-25T01:26:37.781Z,1020.88
2016-08-25T01:27:38.400Z,1020.9
2016-08-25T01:28:39.025Z,1020.85
2016-08-25T01:29:39.649Z,1020.86
2016-08-25T01:30:40.278Z,1020.84
2016-08-25T01:31:40.903Z,1020.84
2016-08-25T01:32:41.532Z,1020.84
2016-08-25T01:33:42.151Z,1020.8
2016-08-25T01:34:42.772Z,1020.85
2016-08-25T01:35:43.392Z,1020.85
2016-08-25T01:36:44.032Z,1020.82
2016-08-25T01:37:44.659Z,1020.87
2016-08-25T01:38:45.312Z,1020.88
2016-08-25T01:39:45.941Z,1020.84
2016-08-25T01:40:46.571Z,1020.86
2016-08-25T01:41:47.203Z,1020.85
2016-08-25T01:42:47.825Z,1020.9
2016-08-25T01:43:48.442Z,1020.89
2016-08-25T01:44:49.066Z,1020.91
2016-08-25T01:45:49.693Z,1020.84
2016-08-25T01:46:50.314Z,1020.84
2016-08-25T01:47:50.933Z,1020.88
2016-08-25T01:48:51.555Z,1020.89
2016-08-25T01:49:52.184Z,1020.9
2016-08-25T01:50:52.806Z,1020.85
2016-08-25T01:51:53.455Z,1020.87
2016-08-25T01:52:54.076Z,1020.85
2016-08-25T01:53:54.696Z,1020.86
2016-08-25T01:54:55.341Z,1020.86
2016-08-25T01:55:55.976Z,1020.85
2016-08-25T01:56:56.604Z,1020.88
2016-08-25T01:57:57.228Z,1020.84
2016-08-25T01:58:57.851Z,1020.84
2016-08-25T01:59:58.476Z,1020.86
2016-08-25T02:00:59.115Z,1020.84
2016-08-25T02:01:59.746Z,1020.81
2016-08-25T02:03:00.381Z,1020.83
2016-08-25T02:04:01.009Z,1020.84
2016-08-25T02:05:01.636Z,1020.81
2016-08-25T02:06:02.277Z,1020.85
2016-08-25T02:07:02.901Z,1020.81
2016-08-25T02:08:03.527Z,1020.84
2016-08-25T02:09:04.144Z,1020.84
2016-08-25T02:10:04.766Z,1020.83
2016-08-25T02:11:05.407Z,1020.8
2016-08-25T02:12:06.035Z,1020.86
2016-08-25T02:13:06.672Z,1020.85
2016-08-25T02:14:07.297Z,1020.81
2016-08-25T02:15:07.943Z,1020.86
2016-08-25T02:16:08.590Z,1020.83
2016-08-25T02:17:09.222Z,1020.86
2016-08-25T02:18:09.843Z,1020.81
2016-08-25T02:19:10.470Z,1020.77
2016-08-25T02:20:11.086Z,1020.8
2016-08-25T02:21:11.711Z,1020.77
2016-08-25T02:22:12.333Z,1020.74
2016-08-25T02:23:12.952Z,1020.75
2016-08-25T02:24:13.570Z,1020.74
2016-08-25T02:25:14.193Z,1020.71
2016-08-25T02:26:14.811Z,1020.72
2016-08-25T02:27:15.452Z,1020.74
2016-08-25T02:28:16.073Z,1020.78
2016-08-25T02:29:16.698Z,1020.78
2016-08-25T02:30:17.328Z,1020.73
2016-08-25T02:31:17.951Z,1020.74
2016-08-25T02:32:18.587Z,1020.75
2016-08-25T02:33:19.221Z,1020.77
2016-08-25T02:34:19.841Z,1020.74
2016-08-25T02:35:20.460Z,1020.73
2016-08-25T02:36:21.087Z,1020.76
2016-08-25T02:37:21.711Z,1020.75
2016-08-25T02:38:22.335Z,1020.77
2016-08-25T02:39:22.971Z,1020.75
2016-08-25T02:40:23.599Z,1020.78
2016-08-25T02:41:24.225Z,1020.77
2016-08-25T02:42:24.849Z,1020.79
2016-08-25T02:43:25.469Z,1020.79
2016-08-25T02:44:26.096Z,1020.8
2016-08-25T02:45:26.720Z,1020.75
2016-08-25T02:46:27.340Z,1020.76
2016-08-25T02:47:27.970Z,1020.79
2016-08-25T02:48:28.606Z,1020.81
2016-08-25T02:49:29.242Z,1020.77
2016-08-25T02:50:29.861Z,1020.82
2016-08-25T02:51:30.480Z,1020.78
2016-08-25T02:52:31.116Z,1020.77
2016-08-25T02:53:31.738Z,1020.78
2016-08-25T02:54:32.382Z,1020.79
2016-08-25T02:55:33.005Z,1020.79
2016-08-25T02:56:33.624Z,1020.83
2016-08-25T02:57:34.266Z,1020.77
2016-08-25T02:58:34.890Z,1020.79
2016-08-25T02:59:35.517Z,1020.81
2016-08-25T03:00:36.140Z,1020.78
2016-08-25T03:01:36.794Z,1020.76
2016-08-25T03:02:37.419Z,1020.8
2016-08-25T03:03:38.041Z,1020.79
2016-08-25T03:04:38.686Z,1020.78
2016-08-25T03:05:39.305Z,1020.78
2016-08-25T03:06:39.927Z,1020.75
2016-08-25T03:07:40.543Z,1020.81
2016-08-25T03:08:41.171Z,1020.83
2016-08-25T03:09:41.801Z,1020.83
2016-08-25T03:10:42.429Z,1020.79
2016-08-25T03:11:43.065Z,1020.79
2016-08-25T03:12:43.690Z,1020.79
2016-08-25T03:13:44.331Z,1020.8
2016-08-25T03:14:44.955Z,1020.81
2016-08-25T03:15:45.581Z,1020.83
2016-08-25T03:16:46.198Z,1020.82
2016-08-25T03:17:46.833Z,1020.76
2016-08-25T03:18:47.457Z,1020.78
2016-08-25T03:19:48.102Z,1020.76
2016-08-25T03:20:48.730Z,1020.77
2016-08-25T03:21:49.356Z,1020.76
2016-08-25T03:22:49.983Z,1020.76
2016-08-25T03:23:50.608Z,1020.75
2016-08-25T03:24:51.240Z,1020.76
2016-08-25T03:25:51.869Z,1020.68
2016-08-25T03:26:52.490Z,1020.71
2016-08-25T03:27:53.105Z,1020.73
2016-08-25T03:28:53.727Z,1020.74
2016-08-25T03:29:54.370Z,1020.74
2016-08-25T03:30:54.998Z,1020.76
2016-08-25T03:31:55.627Z,1020.77
2016-08-25T03:32:56.246Z,1020.76
2016-08-25T03:33:56.880Z,1020.78
2016-08-25T03:34:57.501Z,1020.77
2016-08-25T03:35:58.120Z,1020.83
2016-08-25T03:36:58.741Z,1020.8
2016-08-25T03:37:59.377Z,1020.77
2016-08-25T03:39:00.031Z,1020.8
2016-08-25T03:40:00.668Z,1020.8
2016-08-25T03:41:01.304Z,1020.8
2016-08-25T03:42:01.948Z,1020.8
2016-08-25T03:43:02.582Z,1020.81
2016-08-25T03:44:03.209Z,1020.78
2016-08-25T03:45:03.827Z,1020.79
2016-08-25T03:46:04.472Z,1020.78
2016-08-25T03:47:05.098Z,1020.78
2016-08-25T03:48:05.721Z,1020.75
2016-08-25T03:49:06.347Z,1020.84
2016-08-25T03:50:06.965Z,1020.82
2016-08-25T03:51:07.600Z,1020.79
2016-08-25T03:52:08.224Z,1020.81
2016-08-25T03:53:08.846Z,1020.82
2016-08-25T03:54:09.464Z,1020.78
2016-08-25T03:55:10.088Z,1020.81
2016-08-25T03:56:10.705Z,1020.82
2016-08-25T03:57:11.334Z,1020.81
2016-08-25T03:58:11.959Z,1020.8
2016-08-25T03:59:12.589Z,1020.84
2016-08-25T04:00:13.213Z,1020.8
2016-08-25T04:01:13.831Z,1020.83
2016-08-25T04:02:14.453Z,1020.81
2016-08-25T04:03:15.092Z,1020.79
2016-08-25T04:04:15.725Z,1020.78
2016-08-25T04:05:16.350Z,1020.82
2016-08-25T04:06:16.969Z,1020.77
2016-08-25T04:07:17.592Z,1020.8
2016-08-25T04:08:18.213Z,1020.77
2016-08-25T04:09:18.847Z,1020.73
2016-08-25T04:10:19.477Z,1020.72
2016-08-25T04:11:20.102Z,1020.73
2016-08-25T04:12:20.744Z,1020.72
2016-08-25T04:13:21.363Z,1020.74
2016-08-25T04:14:21.981Z,1020.72
2016-08-25T04:15:22.610Z,1020.73
2016-08-25T04:16:23.226Z,1020.69
2016-08-25T04:17:23.849Z,1020.69
2016-08-25T04:18:24.467Z,1020.69
2016-08-25T04:19:25.097Z,1020.66
2016-08-25T04:20:25.723Z,1020.67
2016-08-25T04:21:26.343Z,1020.64
2016-08-25T04:22:26.964Z,1020.65
2016-08-25T04:23:27.606Z,1020.66
2016-08-25T04:24:28.239Z,1020.64
2016-08-25T04:25:28.893Z,1020.65
2016-08-25T04:26:29.522Z,1020.66
2016-08-25T04:27:30.145Z,1020.61
2016-08-25T04:28:30.766Z,1020.62
2016-08-25T04:29:31.387Z,1020.61
2016-08-25T04:30:32.010Z,1020.6
2016-08-25T04:31:32.658Z,1020.58
2016-08-25T04:32:33.278Z,1020.56
2016-08-25T04:33:33.900Z,1020.57
2016-08-25T04:34:34.519Z,1020.54
2016-08-25T04:35:35.141Z,1020.54
2016-08-25T04:36:35.762Z,1020.5
2016-08-25T04:37:36.384Z,1020.53
2016-08-25T04:38:37.024Z,1020.55
2016-08-25T04:39:37.640Z,1020.52
2016-08-25T04:40:38.266Z,1020.53
2016-08-25T04:41:38.897Z,1020.54
2016-08-25T04:42:39.519Z,1020.51
2016-08-25T04:43:40.141Z,1020.53
2016-08-25T04:44:40.763Z,1020.57
2016-08-25T04:45:41.381Z,1020.56
2016-08-25T04:46:42.009Z,1020.54
2016-08-25T04:47:42.641Z,1020.56
2016-08-25T04:48:43.262Z,1020.55
2016-08-25T04:49:43.881Z,1020.52
2016-08-25T04:50:44.511Z,1020.5
2016-08-25T04:51:45.139Z,1020.52
2016-08-25T04:52:45.767Z,1020.53
2016-08-25T04:53:46.388Z,1020.47
2016-08-25T04:54:47.018Z,1020.46
2016-08-25T04:55:47.644Z,1020.49
2016-08-25T04:56:48.274Z,1020.48
2016-08-25T04:57:48.916Z,1020.52
2016-08-25T04:58:49.539Z,1020.49
2016-08-25T04:59:50.159Z,1020.49
2016-08-25T05:00:50.779Z,1020.5
2016-08-25T05:01:51.402Z,1020.5
2016-08-25T05:02:52.026Z,1020.51
2016-08-25T05:03:52.647Z,1020.48
2016-08-25T05:04:53.265Z,1020.49
2016-08-25T05:05:53.890Z,1020.46
2016-08-25T05:06:54.525Z,1020.48
2016-08-25T05:07:55.153Z,1020.51
2016-08-25T05:08:55.778Z,1020.49
2016-08-25T05:09:56.404Z,1020.46
2016-08-25T05:10:57.019Z,1020.49
2016-08-25T05:11:57.665Z,1020.48
2016-08-25T05:12:58.300Z,1020.46
2016-08-25T05:13:58.930Z,1020.46
2016-08-25T05:14:59.547Z,1020.45
2016-08-25T05:16:00.168Z,1020.5
2016-08-25T05:17:00.803Z,1020.49
2016-08-25T05:18:01.442Z,1020.47
2016-08-25T05:19:02.067Z,1020.46
2016-08-25T05:20:02.728Z,1020.48
2016-08-25T05:21:03.351Z,1020.49
2016-08-25T05:22:03.991Z,1020.47
2016-08-25T05:23:04.616Z,1020.48
2016-08-25T05:24:05.240Z,1020.5
2016-08-25T05:25:05.859Z,1020.45
2016-08-25T05:26:06.503Z,1020.49
2016-08-25T05:27:07.131Z,1020.49
2016-08-25T05:28:07.820Z,1020.5
2016-08-25T05:29:08.446Z,1020.43
2016-08-25T05:30:09.092Z,1020.47
2016-08-25T05:31:09.720Z,1020.48
2016-08-25T05:32:10.359Z,1020.48
2016-08-25T05:33:10.982Z,1020.45
2016-08-25T05:34:11.608Z,1020.47
2016-08-25T05:35:12.224Z,1020.45
2016-08-25T05:36:12.845Z,1020.45
2016-08-25T05:37:13.489Z,1020.39
2016-08-25T05:38:14.126Z,1020.44
2016-08-25T05:39:14.748Z,1020.4
2016-08-25T05:40:15.387Z,1020.4
2016-08-25T05:41:16.015Z,1020.41
2016-08-25T05:42:16.655Z,1020.42
2016-08-25T05:43:17.286Z,1020.41
2016-08-25T05:44:17.920Z,1020.42
2016-08-25T05:45:18.540Z,1020.39
2016-08-25T05:46:19.172Z,1020.42
2016-08-25T05:47:19.803Z,1020.38
2016-08-25T05:48:20.426Z,1020.42
2016-08-25T05:49:21.046Z,1020.44
2016-08-25T05:50:21.666Z,1020.44
2016-08-25T05:51:22.294Z,1020.41
2016-08-25T05:52:22.928Z,1020.44
2016-08-25T05:53:23.577Z,1020.45
2016-08-25T05:54:24.205Z,1020.42
2016-08-25T05:55:24.824Z,1020.4
2016-08-25T05:56:25.442Z,1020.42
2016-08-25T05:57:26.071Z,1020.49
2016-08-25T05:58:26.693Z,1020.46
2016-08-25T05:59:27.319Z,1020.46
2016-08-25T06:00:27.950Z,1020.46
2016-08-25T06:01:28.594Z,1020.49
2016-08-25T06:02:29.212Z,1020.48
2016-08-25T06:03:29.836Z,1020.5
2016-08-25T06:04:30.459Z,1020.47
2016-08-25T06:05:31.092Z,1020.45
2016-08-25T06:06:31.738Z,1020.46
2016-08-25T06:07:32.410Z,1020.43
2016-08-25T06:08:33.044Z,1020.41
2016-08-25T06:09:33.668Z,1020.39
2016-08-25T06:10:34.299Z,1020.4
2016-08-25T06:11:34.926Z,1020.36
2016-08-25T06:12:35.558Z,1020.34
2016-08-25T06:13:36.200Z,1020.35
2016-08-25T06:14:36.834Z,1020.29
2016-08-25T06:15:37.458Z,1020.24
2016-08-25T06:16:38.088Z,1020.26
2016-08-25T06:17:38.711Z,1020.29
2016-08-25T06:18:39.339Z,1020.2
2016-08-25T06:19:39.975Z,1020.26
2016-08-25T06:20:40.596Z,1020.24
2016-08-25T06:21:41.222Z,1020.24
2016-08-25T06:22:41.851Z,1020.22
2016-08-25T06:23:42.503Z,1020.22
2016-08-25T06:24:43.115Z,1020.16
2016-08-25T06:25:43.741Z,1020.21
2016-08-25T06:26:44.373Z,1020.21
2016-08-25T06:27:44.995Z,1020.21
2016-08-25T06:28:45.635Z,1020.22
2016-08-25T06:29:46.294Z,1020.22
2016-08-25T06:30:46.956Z,1020.22
2016-08-25T06:31:47.583Z,1020.23
2016-08-25T06:32:48.208Z,1020.24
2016-08-25T06:33:48.832Z,1020.22
2016-08-25T06:34:49.466Z,1020.23
2016-08-25T06:35:50.087Z,1020.26
2016-08-25T06:36:50.709Z,1020.2
2016-08-25T06:37:51.343Z,1020.23
2016-08-25T06:38:51.966Z,1020.2
2016-08-25T06:39:52.593Z,1020.2
2016-08-25T06:40:53.219Z,1020.18
2016-08-25T06:41:53.852Z,1020.13
2016-08-25T06:42:54.491Z,1020.08
2016-08-25T06:43:55.117Z,1020.1
2016-08-25T06:44:55.755Z,1020.13
2016-08-25T06:45:56.382Z,1020.13
2016-08-25T06:46:57.021Z,1020.12
2016-08-25T06:47:57.668Z,1020.09
2016-08-25T06:48:58.294Z,1020.11
2016-08-25T06:49:58.937Z,1020.12
2016-08-25T06:50:59.574Z,1020.14
2016-08-25T06:52:00.200Z,1020.1
2016-08-25T06:53:00.834Z,1020.14
2016-08-25T06:54:01.466Z,1020.07
2016-08-25T06:55:02.126Z,1020.13
2016-08-25T06:56:02.769Z,1020.12
2016-08-25T06:57:03.394Z,1020.17
2016-08-25T06:58:04.013Z,1020.19
2016-08-25T06:59:04.634Z,1020.22
2016-08-25T07:00:05.257Z,1020.25
2016-08-25T07:01:05.883Z,1020.23
2016-08-25T07:02:06.525Z,1020.24
2016-08-25T07:03:07.154Z,1020.19
2016-08-25T07:04:07.787Z,1020.28
2016-08-25T07:05:08.405Z,1020.24
2016-08-25T07:06:09.028Z,1020.23
2016-08-25T07:07:09.657Z,1020.21
2016-08-25T07:08:10.283Z,1020.28
2016-08-25T07:09:10.906Z,1020.29
2016-08-25T07:10:11.537Z,1020.3
2016-08-25T07:11:12.161Z,1020.31
2016-08-25T07:12:12.793Z,1020.29
2016-08-25T07:13:13.431Z,1020.39
2016-08-25T07:14:14.063Z,1020.39
2016-08-25T07:15:14.688Z,1020.42
2016-08-25T07:16:15.318Z,1020.41
2016-08-25T07:17:15.961Z,1020.46
2016-08-25T07:18:16.597Z,1020.45
2016-08-25T07:19:17.223Z,1020.51
2016-08-25T07:20:17.845Z,1020.43
2016-08-25T07:21:18.466Z,1020.47
2016-08-25T07:22:19.092Z,1020.45
2016-08-25T07:23:19.708Z,1020.46
2016-08-25T07:24:20.327Z,1020.47
2016-08-25T07:25:20.957Z,1020.46
2016-08-25T07:26:21.595Z,1020.43
2016-08-25T07:27:22.231Z,1020.44
2016-08-25T07:28:22.868Z,1020.43
2016-08-25T07:29:23.490Z,1020.43
2016-08-25T07:30:24.131Z,1020.41
2016-08-25T07:31:24.756Z,1020.39
2016-08-25T07:32:25.481Z,1020.42
2016-08-25T07:33:26.099Z,1020.44
2016-08-25T07:34:26.729Z,1020.44
2016-08-25T07:35:27.349Z,1020.42
2016-08-25T07:36:27.976Z,1020.49
2016-08-25T07:37:28.620Z,1020.44
2016-08-25T07:38:29.249Z,1020.46
2016-08-25T07:39:29.884Z,1020.43
2016-08-25T07:40:30.507Z,1020.46
2016-08-25T07:41:31.129Z,1020.43
2016-08-25T07:42:31.749Z,1020.45
2016-08-25T07:43:32.370Z,1020.43
2016-08-25T07:44:33.010Z,1020.4
2016-08-25T07:45:33.653Z,1020.42
2016-08-25T07:46:34.290Z,1020.41
2016-08-25T07:47:34.911Z,1020.36
2016-08-25T07:48:35.546Z,1020.38
2016-08-25T07:49:36.176Z,1020.37
2016-08-25T07:50:36.829Z,1020.38
2016-08-25T07:51:37.461Z,1020.37
2016-08-25T07:52:38.099Z,1020.39
2016-08-25T07:53:38.733Z,1020.41
2016-08-25T07:54:39.376Z,1020.42
2016-08-25T07:55:40.000Z,1020.39
2016-08-25T07:56:40.628Z,1020.41
2016-08-25T07:57:41.270Z,1020.38
2016-08-25T07:58:41.896Z,1020.39
2016-08-25T07:59:42.545Z,1020.4
2016-08-25T08:00:43.173Z,1020.35
2016-08-25T08:01:43.804Z,1020.35
2016-08-25T08:02:44.430Z,1020.38
2016-08-25T08:03:45.058Z,1020.35
2016-08-25T08:04:45.698Z,1020.35
2016-08-25T08:05:46.325Z,1020.37
2016-08-25T08:06:46.971Z,1020.34
2016-08-25T08:07:47.617Z,1020.35
2016-08-25T08:08:48.249Z,1020.35
2016-08-25T08:09:48.877Z,1020.37
2016-08-25T08:10:49.530Z,1020.36
2016-08-25T08:11:50.187Z,1020.37
2016-08-25T08:12:50.830Z,1020.4
2016-08-25T08:13:51.458Z,1020.37
2016-08-25T08:14:52.091Z,1020.35
2016-08-25T08:15:52.718Z,1020.38
2016-08-25T08:16:53.359Z,1020.34
2016-08-25T08:17:54.005Z,1020.37
2016-08-25T08:18:54.626Z,1020.32
2016-08-25T08:19:55.253Z,1020.28
2016-08-25T08:20:55.882Z,1020.24
2016-08-25T08:21:56.522Z,1020.27
2016-08-25T08:22:57.150Z,1020.2
2016-08-25T08:23:57.788Z,1020.24
2016-08-25T08:24:58.421Z,1020.17
2016-08-25T08:25:59.053Z,1020.18
2016-08-25T08:26:59.694Z,1020.16
2016-08-25T08:28:00.358Z,1020.2
2016-08-25T08:29:00.988Z,1020.22
2016-08-25T08:30:01.616Z,1020.2
2016-08-25T08:31:02.244Z,1020.22
2016-08-25T08:32:02.882Z,1020.19
2016-08-25T08:33:03.496Z,1020.18
2016-08-25T08:34:04.133Z,1020.17
2016-08-25T08:35:04.781Z,1020.19
2016-08-25T08:36:05.404Z,1020.2
2016-08-25T08:37:06.038Z,1020.17
2016-08-25T08:38:06.675Z,1020.2
2016-08-25T08:39:07.306Z,1020.11
2016-08-25T08:40:07.934Z,1020.15
2016-08-25T08:41:08.559Z,1020.13
2016-08-25T08:42:09.195Z,1020.16
2016-08-25T08:43:09.823Z,1020.15
2016-08-25T08:44:10.455Z,1020.12
2016-08-25T08:45:11.084Z,1020.09
2016-08-25T08:46:11.725Z,1020.12
2016-08-25T08:47:12.377Z,1020.08
2016-08-25T08:48:13.011Z,1020.07
2016-08-25T08:49:13.645Z,1020.06
2016-08-25T08:50:14.271Z,1020.05
2016-08-25T08:51:14.909Z,1020.06
2016-08-25T08:52:15.539Z,1020.06
2016-08-25T08:53:16.165Z,1020.11
2016-08-25T08:54:16.797Z,1020.07
2016-08-25T08:55:17.425Z,1020.04
2016-08-25T08:56:18.053Z,1020.06
2016-08-25T08:57:18.683Z,1020.01
2016-08-25T08:58:19.313Z,1020.03
2016-08-25T08:59:19.950Z,1020.03
2016-08-25T09:00:20.582Z,1020.03
2016-08-25T09:01:21.217Z,1020.01
2016-08-25T09:02:21.850Z,1019.99
2016-08-25T09:03:22.484Z,1020
2016-08-25T09:04:23.113Z,1020.03
2016-08-25T09:05:23.738Z,1019.95
2016-08-25T09:06:24.370Z,1020.03
2016-08-25T09:07:25.012Z,1019.96
2016-08-25T09:08:25.636Z,1019.94
2016-08-25T09:09:26.269Z,1019.95
2016-08-25T09:10:26.895Z,1019.91
2016-08-25T09:11:27.552Z,1019.89
2016-08-25T09:12:28.181Z,1019.9
2016-08-25T09:13:28.796Z,1019.87
2016-08-25T09:14:29.431Z,1019.87
2016-08-25T09:15:30.068Z,1019.85
2016-08-25T09:16:30.699Z,1019.86
2016-08-25T09:17:31.336Z,1019.88
2016-08-25T09:18:31.992Z,1019.93
2016-08-25T09:19:32.614Z,1019.88
2016-08-25T09:20:33.234Z,1019.89
2016-08-25T09:21:33.861Z,1019.9
2016-08-25T09:22:34.500Z,1019.87
2016-08-25T09:23:35.131Z,1019.84
2016-08-25T09:24:35.762Z,1019.8
2016-08-25T09:25:36.396Z,1019.8
2016-08-25T09:26:37.034Z,1019.78
2016-08-25T09:27:37.680Z,1019.74
2016-08-25T09:28:38.320Z,1019.78
2016-08-25T09:29:38.992Z,1019.73
2016-08-25T09:30:39.619Z,1019.76
2016-08-25T09:31:40.536Z,1019.75
2016-08-25T09:32:41.742Z,1019.75
2016-08-25T09:33:42.534Z,1019.7
2016-08-25T09:34:43.352Z,1019.72
2016-08-25T09:35:44.073Z,1019.68
2016-08-25T09:36:45.756Z,1019.67
2016-08-25T09:37:46.658Z,1019.63
2016-08-25T09:38:47.727Z,1019.61
2016-08-25T09:39:48.498Z,1019.56
2016-08-25T09:40:49.287Z,1019.58
2016-08-25T09:41:49.978Z,1019.59
2016-08-25T09:42:50.657Z,1019.55
2016-08-25T09:43:51.398Z,1019.54
2016-08-25T09:44:52.031Z,1019.54
2016-08-25T09:45:52.652Z,1019.57
2016-08-25T09:46:53.296Z,1019.55
2016-08-25T09:47:53.948Z,1019.53
2016-08-25T09:48:54.621Z,1019.51
2016-08-25T09:49:55.253Z,1019.49
2016-08-25T09:50:55.883Z,1019.52
2016-08-25T09:51:56.514Z,1019.46
2016-08-25T09:52:57.150Z,1019.48
2016-08-25T09:53:57.814Z,1019.46
2016-08-25T09:54:58.835Z,1019.5
2016-08-25T09:55:59.489Z,1019.44
2016-08-25T09:57:00.138Z,1019.48
2016-08-25T09:58:00.799Z,1019.45
2016-08-25T09:59:01.532Z,1019.43
2016-08-25T10:00:02.259Z,1019.45
2016-08-25T10:01:03.324Z,1019.43
2016-08-25T10:02:04.012Z,1019.48
2016-08-25T10:03:04.725Z,1019.45
2016-08-25T10:04:05.438Z,1019.39
2016-08-25T10:05:06.168Z,1019.4
2016-08-25T10:06:07.327Z,1019.36
2016-08-25T10:07:07.945Z,1019.37
2016-08-25T10:08:08.649Z,1019.34
2016-08-25T10:09:09.278Z,1019.31
2016-08-25T10:10:09.967Z,1019.32
2016-08-25T10:11:10.617Z,1019.31
2016-08-25T10:12:11.379Z,1019.33
2016-08-25T10:13:12.006Z,1019.34
2016-08-25T10:14:12.659Z,1019.31
2016-08-25T10:15:13.296Z,1019.3
2016-08-25T10:16:14.197Z,1019.33
2016-08-25T10:17:14.898Z,1019.29
2016-08-25T10:18:15.526Z,1019.22
2016-08-25T10:19:16.169Z,1019.25
2016-08-25T10:20:16.790Z,1019.24
2016-08-25T10:21:17.425Z,1019.21
2016-08-25T10:22:18.054Z,1019.17
2016-08-25T10:23:18.694Z,1019.14
2016-08-25T10:24:19.357Z,1019.21
2016-08-25T10:25:19.991Z,1019.17
2016-08-25T10:26:20.615Z,1019.18
2016-08-25T10:27:21.244Z,1019.14
2016-08-25T10:28:21.873Z,1019.13
2016-08-25T10:29:22.502Z,1019.15
2016-08-25T10:30:23.139Z,1019.18
2016-08-25T10:31:23.773Z,1019.15
2016-08-25T10:32:24.398Z,1019.17
2016-08-25T10:33:25.028Z,1019.16
2016-08-25T10:34:25.655Z,1019.18
2016-08-25T10:35:26.289Z,1019.1
2016-08-25T10:36:26.915Z,1019.11
2016-08-25T10:37:27.569Z,1019.1
2016-08-25T10:38:28.227Z,1019.07
2016-08-25T10:39:28.875Z,1019.05
2016-08-25T10:40:29.505Z,1019.06
2016-08-25T10:41:30.161Z,1019.04
2016-08-25T10:42:30.811Z,1019.02
2016-08-25T10:43:31.456Z,1019.01
2016-08-25T10:44:32.104Z,1018.99
2016-08-25T10:45:32.730Z,1018.96
2016-08-25T10:46:33.361Z,1018.96
2016-08-25T10:47:33.998Z,1018.91
2016-08-25T10:48:34.647Z,1018.95
2016-08-25T10:49:35.271Z,1018.97
2016-08-25T10:50:35.925Z,1018.99
2016-08-25T10:51:36.544Z,1018.95
2016-08-25T10:52:37.254Z,1018.98
2016-08-25T10:53:37.885Z,1018.93
2016-08-25T10:54:38.525Z,1018.94
2016-08-25T10:55:39.162Z,1018.95
2016-08-25T10:56:39.852Z,1018.99
2016-08-25T10:57:40.493Z,1018.96
2016-08-25T10:58:41.127Z,1018.93
2016-08-25T10:59:41.769Z,1018.97
2016-08-25T11:00:42.389Z,1018.95
2016-08-25T11:01:43.030Z,1018.94
2016-08-25T11:02:43.655Z,1018.94
2016-08-25T11:03:44.283Z,1018.98
2016-08-25T11:04:44.914Z,1018.93
2016-08-25T11:05:45.562Z,1018.93
2016-08-25T11:06:46.188Z,1018.91
2016-08-25T11:07:46.837Z,1018.87
2016-08-25T11:08:47.466Z,1018.82
2016-08-25T11:09:48.110Z,1018.8
2016-08-25T11:10:48.732Z,1018.8
2016-08-25T11:11:49.369Z,1018.84
2016-08-25T11:12:50.000Z,1018.82
2016-08-25T11:13:50.628Z,1018.75
2016-08-25T11:14:51.260Z,1018.77
2016-08-25T11:15:51.897Z,1018.77
2016-08-25T11:16:52.547Z,1018.74
2016-08-25T11:17:53.180Z,1018.75
2016-08-25T11:18:53.827Z,1018.76
2016-08-25T11:19:54.509Z,1018.77
2016-08-25T11:20:55.154Z,1018.75
2016-08-25T11:21:55.786Z,1018.73
2016-08-25T11:22:56.409Z,1018.75
2016-08-25T11:23:57.043Z,1018.72
2016-08-25T11:24:57.678Z,1018.69
2016-08-25T11:25:58.328Z,1018.68
2016-08-25T11:26:58.957Z,1018.7
2016-08-25T11:27:59.603Z,1018.64
2016-08-25T11:29:00.255Z,1018.63
2016-08-25T11:30:00.891Z,1018.61
2016-08-25T11:31:01.506Z,1018.66
2016-08-25T11:32:02.146Z,1018.59
2016-08-25T11:33:02.780Z,1018.59
2016-08-25T11:34:03.410Z,1018.6
2016-08-25T11:35:04.033Z,1018.58
2016-08-25T11:36:04.674Z,1018.61
2016-08-25T11:37:05.309Z,1018.62
2016-08-25T11:38:05.939Z,1018.61
2016-08-25T11:39:06.591Z,1018.61
2016-08-25T11:40:07.217Z,1018.61
2016-08-25T11:41:07.855Z,1018.59
2016-08-25T11:42:08.479Z,1018.58
2016-08-25T11:43:09.113Z,1018.57
2016-08-25T11:44:09.758Z,1018.56
2016-08-25T11:45:30.299Z,1018.56
2016-08-25T11:46:30.928Z,1018.53
2016-08-25T11:47:31.606Z,1018.54
2016-08-25T11:48:32.283Z,1018.52
2016-08-25T11:49:32.912Z,1018.49
2016-08-25T11:50:33.554Z,1018.56
2016-08-25T11:51:34.216Z,1018.56
2016-08-25T11:52:34.857Z,1018.5
2016-08-25T11:53:35.483Z,1018.43
2016-08-25T11:54:36.107Z,1018.41
2016-08-25T11:55:36.740Z,1018.4
2016-08-25T11:56:37.366Z,1018.38
2016-08-25T11:57:37.999Z,1018.37
2016-08-25T11:58:38.637Z,1018.26
2016-08-25T11:59:39.265Z,1018.31
2016-08-25T12:00:39.895Z,1018.32
2016-08-25T12:01:40.524Z,1018.3
2016-08-25T12:02:41.150Z,1018.27
2016-08-25T12:03:41.783Z,1018.29
2016-08-25T12:04:42.428Z,1018.26
2016-08-25T12:05:43.063Z,1018.27
2016-08-25T12:06:43.704Z,1018.31
2016-08-25T12:07:44.348Z,1018.3
2016-08-25T12:08:44.981Z,1018.19
2016-08-25T12:09:45.611Z,1018.2
2016-08-25T12:10:46.234Z,1018.17
2016-08-25T12:11:46.875Z,1018.16
2016-08-25T12:12:47.503Z,1018.14
2016-08-25T12:13:48.137Z,1018.17
2016-08-25T12:14:48.773Z,1018.14
2016-08-25T12:15:49.408Z,1018.1
2016-08-25T12:16:50.038Z,1018.07